Milan Linate, Italy

6:36 AM CET on October 31, 2014 (GMT +0100)
Peschiera Borromeo - Bellaria (Mi) | Change Station
CLOSE
Current Station
Personal Weather Station
Location: Peschiera Borromeo,
Elevation: 318 ft
Nearby Weather Stations

Elev 318 ft 45.42 °N, 9.31 °E | Updated 13 minutes ago

Patches of Fog
Patches Fog
41.5 °F
Feels Like 42 °F
N
0.0
Wind Variable Wind from North
Gusts 0.0 mph

Today
High -- | Low -- °F
--% Chance of Precip.
Yesterday
High -- | Low -- °F
Precip. -- in
7:00 AM 5:11 PM
First Quarter, 51% visible
Pressure 30.30 in
Visibility 0.5 miles
Clouds
Windchill 42 °F
Dew Point 39 °F
Humidity 91%
Rainfall 0.00 in
Snow Depth Not available.
UV Not available.
Pollen Not available.
Air Quality Not available.
Flu Activity Not available.
METAR LIML 310520Z VRB02KT 0800 R36/0300V0700U BCFG NSC 05/05 Q1026 NOSIG

More Conditions Fewer Conditions

Pressure 30.30 in
Visibility 0.5 miles
Clouds
Windchill 42 °F
Dew Point 39 °F
Humidity 91%
Rainfall 0.00 in
Snow Depth Not available.
UV Not available.
Pollen Not available.
Air Quality Not available.
Flu Activity Not available.
METAR LIML 310520Z VRB02KT 0800 R36/0300V0700U BCFG NSC 05/05 Q1026 NOSIG

More Conditions Fewer Conditions

10-Day Weather Forecast

Almanac

Astronomy

Oct. 31, 2014 Rise Set
Actual Time
Civil Twilight
Nautical Twilight
Astronomical Twilight
Moon
Length of Visible Light
Length of Day
Tomorrow will be .
, % of the Moon is Illuminated

Today's Extremes

Country Highs Country Lows

Community

WunderPhotos

Upload Photos

1,766,569 photos uploaded!

WunderBlogs® & News

Nearby

Air Quality

  Air Quality AQ Index Pollutant
Not available.

Snow Depth

Station Depth Elevation

Earthquake Activity

City Distance Mag. Time & Date
Minimum magnitude displayed is 2.5.

Coastal Water Temperatures

Place Temperature

Nearby Weather Stations